Time;durP1;ratioP1;P1;durP2;ratioP2;P2;SDS_P1;SDS_P2;PMS_P1;PMS_P2;Temp;Humidity;BMP_temperature;BMP_pressure;BME280_temperature;BME280_humidity;BME280_pressure;Samples;Min_cycle;Max_cycle;Signal;HPM_P1;HPM_P2
2022/10/21 00:00:52;;;;;;;65.00;25.83;;;14.50;99.90;;;;;;5063889;28;20028;-74
2022/10/21 00:03:18;;;;;;;62.83;25.50;;;14.50;99.90;;;;;;5055679;28;20021;-75
2022/10/21 00:05:44;;;;;;;62.42;25.23;;;14.50;99.90;;;;;;5060872;28;20043;-72
2022/10/21 00:08:10;;;;;;;56.13;24.33;;;14.50;99.90;;;;;;5074507;28;20457;-73
2022/10/21 00:10:35;;;;;;;66.78;24.90;;;14.50;99.90;;;;;;5074576;28;20032;-73
2022/10/21 00:13:01;;;;;;;59.63;25.02;;;14.50;99.90;;;;;;5075362;28;20468;-76
2022/10/21 00:15:27;;;;;;;61.10;23.58;;;14.50;99.90;;;;;;5066903;28;20029;-75
2022/10/21 00:17:52;;;;;;;61.33;24.92;;;14.40;99.90;;;;;;5057398;28;20109;-72
2022/10/21 00:20:18;;;;;;;58.08;23.95;;;14.40;99.90;;;;;;5074771;28;20031;-72
2022/10/21 00:22:43;;;;;;;59.63;23.30;;;14.40;99.90;;;;;;5073269;28;20071;-72
2022/10/21 00:25:09;;;;;;;59.08;23.48;;;14.40;99.90;;;;;;5074766;28;20024;-72
2022/10/21 00:27:35;;;;;;;41.45;16.27;;;14.30;99.90;;;;;;5074180;28;20052;-72
2022/10/21 00:30:02;;;;;;;57.45;23.38;;;14.30;99.90;;;;;;5074479;28;20464;-72
2022/10/21 00:32:27;;;;;;;58.45;22.92;;;14.30;99.90;;;;;;5077533;28;20414;-73
2022/10/21 00:34:53;;;;;;;56.38;23.45;;;14.30;99.90;;;;;;5054589;28;20070;-72
2022/10/21 00:37:18;;;;;;;62.45;25.10;;;14.30;99.90;;;;;;5054024;28;20052;-72
2022/10/21 00:39:44;;;;;;;61.53;24.73;;;14.30;99.90;;;;;;5054480;28;20070;-72
2022/10/21 00:42:16;;;;;;;53.97;22.52;;;14.30;99.90;;;;;;5071302;28;20086;-72
2022/10/21 00:44:42;;;;;;;;;;;14.30;99.90;;;;;;5074852;28;20024;-72
2022/10/21 00:47:18;;;;;;;53.13;23.88;;;14.30;99.90;;;;;;5075018;28;19901;-72
2022/10/21 00:49:56;;;;;;;58.85;22.20;;;14.30;99.90;;;;;;5064244;28;20364;-72
2022/10/21 00:52:23;;;;;;;52.08;23.63;;;14.30;99.90;;;;;;5054310;28;20112;-72
2022/10/21 00:54:54;;;;;;;50.53;19.30;;;14.20;99.90;;;;;;5054053;28;20017;-73
2022/10/21 00:57:22;;;;;;;60.45;24.50;;;14.30;99.90;;;;;;5054061;28;20021;-72
2022/10/21 00:59:52;;;;;;;57.63;24.63;;;14.30;99.90;;;;;;5054189;28;20068;-73
2022/10/21 01:02:18;;;;;;;61.35;23.65;;;14.30;99.90;;;;;;5052613;28;20032;-73
2022/10/21 01:04:45;;;;;;;57.47;24.33;;;14.20;99.90;;;;;;5062512;28;20025;-73
2022/10/21 01:07:12;;;;;;;60.05;25.45;;;14.20;99.90;;;;;;5059886;28;20449;-71
2022/10/21 01:09:38;;;;;;;65.47;25.90;;;14.20;99.90;;;;;;5077693;28;20075;-72
2022/10/21 01:12:12;;;;;;;58.90;25.83;;;14.20;99.90;;;;;;5093066;28;20412;-74
2022/10/21 01:14:56;;;;;;;60.00;25.25;;;14.30;99.90;;;;;;5093654;28;20491;-73
2022/10/21 01:17:28;;;;;;;62.35;25.95;;;14.30;99.90;;;;;;5093217;28;20058;-74
2022/10/21 01:19:57;;;;;;;58.00;23.33;;;14.30;99.90;;;;;;5090757;28;20055;-76
2022/10/21 01:22:41;;;;;;;58.17;25.13;;;14.30;99.90;;;;;;5060074;28;20028;-74
2022/10/21 01:25:54;;;;;;;67.32;26.13;;;14.30;99.90;;;;;;5072931;28;20104;-72
2022/10/21 01:28:42;;;;;;;63.78;24.52;;;14.30;99.90;;;;;;5072572;28;20040;-72
2022/10/21 01:31:34;;;;;;;64.88;24.98;;;14.20;99.90;;;;;;5072974;28;20121;-71
2022/10/21 01:34:42;;;;;;;61.72;24.63;;;14.20;99.90;;;;;;5072930;28;20452;-75
2022/10/21 01:37:36;;;;;;;61.15;23.73;;;14.20;99.90;;;;;;5072429;28;20032;-72
2022/10/21 01:40:08;;;;;;;65.72;25.20;;;14.20;99.90;;;;;;5056948;28;20020;-72
2022/10/21 01:42:54;;;;;;;61.22;25.00;;;14.20;99.90;;;;;;5071782;28;20356;-74
2022/10/21 01:45:34;;;;;;;64.00;26.02;;;14.10;99.90;;;;;;5072499;28;20085;-71
2022/10/21 01:48:11;;;;;;;66.22;26.05;;;14.10;99.90;;;;;;5074196;28;20119;-71
2022/10/21 01:50:46;;;;;;;76.40;27.10;;;14.10;99.90;;;;;;5076168;28;20490;-75
2022/10/21 01:53:14;;;;;;;61.05;25.10;;;14.00;99.90;;;;;;5078651;28;20028;-72
2022/10/21 01:55:42;;;;;;;67.13;28.02;;;14.00;99.90;;;;;;5077869;28;20016;-72
2022/10/21 01:58:30;;;;;;;64.28;26.05;;;14.00;99.90;;;;;;5072211;28;20028;-72
2022/10/21 02:00:58;;;;;;;65.50;27.77;;;14.00;99.90;;;;;;5072572;28;20021;-74
2022/10/21 02:03:28;;;;;;;69.43;27.48;;;13.90;99.90;;;;;;5065945;28;20055;-74
2022/10/21 02:05:54;;;;;;;67.57;26.50;;;13.90;99.90;;;;;;5072578;28;20448;-74
2022/10/21 02:08:20;;;;;;;65.28;27.13;;;13.90;99.90;;;;;;5071931;28;20125;-73
2022/10/21 02:10:51;;;;;;;72.97;25.98;;;13.90;99.90;;;;;;5072431;28;20559;-72
2022/10/21 02:13:22;;;;;;;62.63;25.73;;;13.90;99.90;;;;;;5072870;28;20028;-74
2022/10/21 02:15:51;;;;;;;73.50;28.17;;;13.90;99.90;;;;;;5072475;28;20690;-72
2022/10/21 02:18:23;;;;;;;65.90;25.95;;;13.90;99.90;;;;;;5072606;28;20709;-73
2022/10/21 02:20:54;;;;;;;72.80;26.65;;;13.80;99.90;;;;;;5072187;28;20020;-75
2022/10/21 02:23:27;;;;;;;68.10;27.58;;;13.80;99.90;;;;;;5072222;28;20012;-74
2022/10/21 02:25:53;;;;;;;74.50;26.25;;;13.80;99.90;;;;;;5072796;28;20025;-73
2022/10/21 02:28:19;;;;;;;68.18;26.15;;;13.80;99.90;;;;;;5072051;28;20178;-72
2022/10/21 02:31:12;;;;;;;65.43;26.63;;;13.80;99.90;;;;;;5071901;28;20024;-73
2022/10/21 02:33:49;;;;;;;66.10;24.50;;;13.80;99.90;;;;;;5057676;28;20070;-72
2022/10/21 02:36:24;;;;;;;67.00;25.52;;;13.90;99.90;;;;;;5071926;28;20525;-72
2022/10/21 02:38:57;;;;;;;63.63;25.27;;;13.80;99.90;;;;;;5072270;28;20365;-73
2022/10/21 02:41:24;;;;;;;68.15;26.35;;;13.80;99.90;;;;;;5055474;28;20337;-73
2022/10/21 02:43:58;;;;;;;71.38;26.33;;;13.80;99.90;;;;;;5072087;28;20052;-73
2022/10/21 02:46:24;;;;;;;72.53;26.65;;;13.80;99.90;;;;;;5072166;28;20055;-74
2022/10/21 02:48:50;;;;;;;72.88;26.85;;;13.90;99.90;;;;;;5071892;28;20138;-71
2022/10/21 02:51:16;;;;;;;74.88;27.63;;;13.90;99.90;;;;;;5072147;28;20469;-75
2022/10/21 02:53:42;;;;;;;79.15;28.27;;;13.90;99.90;;;;;;5070676;28;20017;-72
2022/10/21 02:56:08;;;;;;;67.93;26.92;;;13.90;99.90;;;;;;5070685;28;20481;-72
2022/10/21 02:58:34;;;;;;;71.05;27.48;;;13.90;99.90;;;;;;5072001;28;20021;-72
2022/10/21 03:01:00;;;;;;;69.85;26.48;;;13.90;99.90;;;;;;5072327;28;20321;-74
2022/10/21 03:03:25;;;;;;;72.18;25.58;;;14.00;99.90;;;;;;5072152;28;20087;-73
2022/10/21 03:05:51;;;;;;;68.55;25.92;;;14.00;99.90;;;;;;5072028;28;20056;-71
2022/10/21 03:08:17;;;;;;;70.75;26.08;;;14.00;99.90;;;;;;5070599;28;20025;-72
2022/10/21 03:10:42;;;;;;;67.05;26.15;;;14.00;99.90;;;;;;5071773;28;20030;-75
2022/10/21 03:13:08;;;;;;;72.63;26.40;;;14.00;99.90;;;;;;5071732;28;20025;-73
2022/10/21 03:15:34;;;;;;;75.18;28.50;;;14.00;99.90;;;;;;5071950;28;20716;-72
2022/10/21 03:17:59;;;;;;;69.68;25.92;;;14.00;99.90;;;;;;5071947;28;20111;-73
2022/10/21 03:20:25;;;;;;;80.07;27.70;;;14.00;99.90;;;;;;5070768;28;20341;-73
2022/10/21 03:22:51;;;;;;;72.80;26.85;;;14.00;99.90;;;;;;5071947;28;20024;-73
2022/10/21 03:25:16;;;;;;;77.22;27.08;;;14.00;99.90;;;;;;5071795;28;20082;-71
2022/10/21 03:27:42;;;;;;;70.03;26.98;;;14.00;99.90;;;;;;5071556;28;20054;-73
2022/10/21 03:30:08;;;;;;;78.35;27.13;;;14.00;99.90;;;;;;5070356;28;20157;-72
2022/10/21 03:32:34;;;;;;;64.38;25.55;;;14.00;99.90;;;;;;5071527;28;20048;-73
2022/10/21 03:35:00;;;;;;;69.68;25.30;;;14.00;99.90;;;;;;5071510;28;20059;-74
2022/10/21 03:37:25;;;;;;;64.47;25.13;;;14.00;99.90;;;;;;5075248;28;20021;-74
2022/10/21 03:39:51;;;;;;;66.20;24.83;;;14.00;99.90;;;;;;5074778;28;20029;-72
2022/10/21 03:42:16;;;;;;;68.50;24.30;;;14.10;99.90;;;;;;5075149;28;20035;-75
2022/10/21 03:44:42;;;;;;;65.43;25.15;;;14.10;99.90;;;;;;5074838;28;20029;-72
2022/10/21 03:47:08;;;;;;;70.18;25.38;;;14.10;99.90;;;;;;5074610;28;20074;-73
2022/10/21 03:49:33;;;;;;;70.47;24.10;;;14.10;99.90;;;;;;5074769;28;20040;-72
2022/10/21 03:51:59;;;;;;;68.07;24.63;;;14.10;99.90;;;;;;5075377;28;20734;-72
2022/10/21 03:54:25;;;;;;;61.92;24.15;;;14.10;99.90;;;;;;5075115;28;20030;-72
2022/10/21 03:56:50;;;;;;;68.40;23.88;;;14.20;99.90;;;;;;5073208;28;20036;-72
2022/10/21 03:59:16;;;;;;;57.65;22.20;;;14.20;99.90;;;;;;5075000;28;20025;-72
2022/10/21 04:01:41;;;;;;;65.57;24.25;;;14.30;99.90;;;;;;5075112;28;20081;-72
2022/10/21 04:04:07;;;;;;;68.25;24.10;;;14.30;99.90;;;;;;5075000;28;20104;-73
2022/10/21 04:06:33;;;;;;;61.40;24.13;;;14.30;99.90;;;;;;5074819;28;20432;-72
2022/10/21 04:08:58;;;;;;;435.23;95.38;;;14.30;99.90;;;;;;5074662;28;20032;-72
2022/10/21 04:11:24;;;;;;;72.03;24.45;;;14.30;99.90;;;;;;5075006;28;20028;-72
2022/10/21 04:13:50;;;;;;;94.45;25.23;;;14.30;99.90;;;;;;5074285;28;20032;-72
2022/10/21 04:16:18;;;;;;;63.72;23.48;;;14.30;99.90;;;;;;5074436;28;20036;-72
2022/10/21 04:18:44;;;;;;;73.25;24.60;;;14.30;99.90;;;;;;5074402;28;20050;-73
2022/10/21 04:21:10;;;;;;;113.97;27.88;;;14.20;99.90;;;;;;5074181;28;20482;-73
2022/10/21 04:23:36;;;;;;;63.72;23.92;;;14.20;99.90;;;;;;5074377;28;20107;-73
2022/10/21 04:26:04;;;;;;;256.15;41.22;;;14.20;99.90;;;;;;5073996;28;20490;-73
2022/10/21 04:28:36;;;;;;;109.82;26.23;;;14.10;99.90;;;;;;5073955;28;20056;-74
2022/10/21 04:31:02;;;;;;;64.57;22.50;;;14.10;99.90;;;;;;5073839;28;20058;-72
2022/10/21 04:33:27;;;;;;;63.53;21.48;;;14.10;99.90;;;;;;5074273;28;20643;-73
2022/10/21 04:35:54;;;;;;;58.05;20.92;;;14.00;99.90;;;;;;5073997;28;20047;-72
2022/10/21 04:38:20;;;;;;;66.15;21.70;;;14.00;99.90;;;;;;5074130;28;20119;-72
2022/10/21 04:40:46;;;;;;;59.35;20.40;;;13.90;99.90;;;;;;5074467;28;20037;-73
2022/10/21 04:43:11;;;;;;;56.78;20.75;;;13.90;99.90;;;;;;5090949;28;20462;-73
2022/10/21 04:45:39;;;;;;;79.85;22.63;;;13.90;99.90;;;;;;5072530;28;20027;-73
2022/10/21 04:48:05;;;;;;;65.18;22.05;;;13.80;99.90;;;;;;5073866;28;20025;-72
2022/10/21 04:50:33;;;;;;;62.60;21.70;;;13.80;99.90;;;;;;5072643;28;20482;-73
2022/10/21 04:52:59;;;;;;;54.42;21.10;;;13.80;99.90;;;;;;5073893;28;20054;-73
2022/10/21 04:55:24;;;;;;;65.90;22.73;;;13.80;99.90;;;;;;5073862;28;20044;-73
2022/10/21 04:57:50;;;;;;;72.82;23.75;;;13.80;99.90;;;;;;5074439;28;20036;-72
2022/10/21 05:00:16;;;;;;;59.13;23.20;;;13.80;99.90;;;;;;5089156;28;20021;-72
2022/10/21 05:02:41;;;;;;;72.07;22.83;;;13.70;99.90;;;;;;5074092;28;20030;-73
2022/10/21 05:05:07;;;;;;;103.47;23.73;;;13.70;99.90;;;;;;5073821;28;20016;-76
2022/10/21 05:07:33;;;;;;;64.25;22.13;;;13.70;99.90;;;;;;5073702;28;20028;-74
2022/10/21 05:09:58;;;;;;;62.42;21.70;;;13.70;99.90;;;;;;5073622;28;20036;-75
2022/10/21 05:12:24;;;;;;;59.78;20.45;;;13.70;99.90;;;;;;5073786;28;20055;-72
2022/10/21 05:14:50;;;;;;;76.90;22.52;;;13.70;99.90;;;;;;5073442;28;20091;-74
2022/10/21 05:17:15;;;;;;;69.85;21.33;;;13.70;99.90;;;;;;5073660;28;20032;-73
2022/10/21 05:19:41;;;;;;;61.30;21.73;;;13.70;99.90;;;;;;5073646;28;20064;-73
2022/10/21 05:22:06;;;;;;;61.00;20.90;;;13.60;99.90;;;;;;5071916;28;20083;-73
2022/10/21 05:24:32;;;;;;;59.72;20.67;;;13.60;99.90;;;;;;5073302;28;20032;-74
2022/10/21 05:26:57;;;;;;;61.33;22.08;;;13.60;99.90;;;;;;5070095;28;20028;-74
2022/10/21 05:29:23;;;;;;;63.13;22.23;;;13.60;99.90;;;;;;5072998;28;20472;-73
2022/10/21 05:31:48;;;;;;;58.83;20.40;;;13.60;99.90;;;;;;5080829;28;20467;-76
2022/10/21 05:34:14;;;;;;;88.32;23.70;;;13.60;99.90;;;;;;5073264;28;20345;-75
2022/10/21 05:36:39;;;;;;;58.33;21.45;;;13.60;99.90;;;;;;5073326;28;20028;-76
2022/10/21 05:39:07;;;;;;;63.22;22.55;;;13.60;99.90;;;;;;5071669;28;20020;-76
2022/10/21 05:41:33;;;;;;;60.13;21.95;;;13.60;99.90;;;;;;5072901;28;20502;-75
2022/10/21 05:43:58;;;;;;;74.35;23.00;;;13.50;99.90;;;;;;5072614;28;20016;-75
2022/10/21 05:46:24;;;;;;;59.78;19.88;;;13.50;99.90;;;;;;5072863;28;20052;-76
2022/10/21 05:48:50;;;;;;;57.25;21.23;;;13.50;99.90;;;;;;5072880;28;20040;-77
2022/10/21 05:51:16;;;;;;;62.67;21.20;;;13.50;99.90;;;;;;5072988;28;20028;-77
2022/10/21 05:53:42;;;;;;;56.38;21.83;;;13.50;99.90;;;;;;5072975;28;20024;-74
2022/10/21 05:56:08;;;;;;;60.33;21.50;;;13.50;99.90;;;;;;5073002;28;20097;-75
2022/10/21 05:58:34;;;;;;;63.33;21.23;;;13.50;99.90;;;;;;5072239;28;20402;-73
2022/10/21 06:01:00;;;;;;;60.60;20.67;;;13.50;99.90;;;;;;5072423;28;20614;-76
2022/10/21 06:03:28;;;;;;;59.58;21.02;;;13.50;99.90;;;;;;5072947;28;20447;-74
2022/10/21 06:05:55;;;;;;;62.17;22.25;;;13.40;99.90;;;;;;5072751;28;20017;-74
2022/10/21 06:08:21;;;;;;;61.50;22.30;;;13.40;99.90;;;;;;5072283;28;20467;-74
2022/10/21 06:10:46;;;;;;;56.28;21.58;;;13.40;99.90;;;;;;5074622;28;20032;-74
2022/10/21 06:13:12;;;;;;;53.20;18.23;;;13.40;99.90;;;;;;5072544;28;20462;-74
2022/10/21 06:15:37;;;;;;;74.45;22.02;;;13.40;99.90;;;;;;5072661;28;20109;-74
2022/10/21 06:18:04;;;;;;;65.10;21.98;;;13.40;99.90;;;;;;5072331;28;20020;-74
2022/10/21 06:20:29;;;;;;;53.53;19.75;;;13.40;99.90;;;;;;5072244;28;20309;-74
2022/10/21 06:22:57;;;;;;;57.75;21.58;;;13.40;99.90;;;;;;5072525;28;20074;-74
2022/10/21 06:25:22;;;;;;;61.20;21.05;;;13.40;99.90;;;;;;5072349;28;20021;-74
2022/10/21 06:27:48;;;;;;;57.90;19.98;;;13.40;99.90;;;;;;5071457;28;20344;-74
2022/10/21 06:30:14;;;;;;;63.50;21.92;;;13.50;99.90;;;;;;5072204;28;20040;-74
2022/10/21 06:32:39;;;;;;;60.45;21.27;;;13.40;99.90;;;;;;5071954;28;20036;-74
2022/10/21 06:35:05;;;;;;;57.45;19.92;;;13.40;99.90;;;;;;5070787;28;20016;-74
2022/10/21 06:37:30;;;;;;;57.85;19.67;;;13.50;99.90;;;;;;5071376;28;20048;-74
2022/10/21 06:39:56;;;;;;;63.55;21.30;;;13.50;99.90;;;;;;5071499;28;20440;-74
2022/10/21 06:42:22;;;;;;;54.97;19.88;;;13.50;99.90;;;;;;5066947;28;20551;-74
2022/10/21 06:44:47;;;;;;;53.70;20.15;;;13.50;99.90;;;;;;5070858;28;20041;-74
2022/10/21 06:47:13;;;;;;;57.50;20.80;;;13.50;99.90;;;;;;5070969;28;20082;-74
2022/10/21 06:49:38;;;;;;;56.00;20.33;;;13.60;99.90;;;;;;5071929;28;20111;-74
2022/10/21 06:52:04;;;;;;;57.13;21.35;;;13.60;99.90;;;;;;5071104;28;20036;-74
2022/10/21 06:54:30;;;;;;;64.40;20.73;;;13.60;99.90;;;;;;5071949;28;20017;-74
2022/10/21 06:56:55;;;;;;;63.70;22.02;;;13.60;99.90;;;;;;5071370;28;20173;-74
2022/10/21 06:59:21;;;;;;;55.63;20.08;;;13.60;99.90;;;;;;5071432;28;20419;-74
2022/10/21 07:01:46;;;;;;;56.10;20.17;;;13.70;99.90;;;;;;5070318;28;20510;-74
2022/10/21 07:04:12;;;;;;;52.42;20.58;;;13.70;99.90;;;;;;5071732;28;20025;-74
2022/10/21 07:06:38;;;;;;;61.80;22.98;;;13.70;99.90;;;;;;5070116;28;20028;-74
2022/10/21 07:09:05;;;;;;;60.95;21.88;;;13.70;99.90;;;;;;5071423;28;20032;-74
2022/10/21 07:11:30;;;;;;;54.40;20.83;;;13.80;99.90;;;;;;5073565;28;20036;-74
2022/10/21 07:13:56;;;;;;;52.63;20.50;;;13.90;99.90;;;;;;5072992;28;20021;-74
2022/10/21 07:16:25;;;;;;;55.85;20.83;;;13.90;99.90;;;;;;5074569;28;20460;-73
2022/10/21 07:18:51;;;;;;;51.50;20.20;;;13.90;99.90;;;;;;5072785;28;20036;-74
2022/10/21 07:21:18;;;;;;;60.55;21.45;;;14.00;99.90;;;;;;5074865;28;20099;-74
2022/10/21 07:23:46;;;;;;;50.70;19.67;;;14.00;99.90;;;;;;5075077;28;20020;-74
2022/10/21 07:26:13;;;;;;;49.78;18.35;;;14.10;99.90;;;;;;5075185;28;20024;-74
2022/10/21 07:28:40;;;;;;;51.95;18.70;;;14.10;99.90;;;;;;5074917;28;20082;-74
2022/10/21 07:31:07;;;;;;;53.17;20.08;;;14.20;99.90;;;;;;5086088;28;20467;-74
2022/10/21 07:33:35;;;;;;;46.90;19.08;;;14.20;99.90;;;;;;5095513;28;20510;-74
2022/10/21 07:36:08;;;;;;;43.53;18.17;;;14.20;99.90;;;;;;5087625;28;20027;-74
2022/10/21 07:38:34;;;;;;;46.72;18.75;;;14.30;99.90;;;;;;5071843;28;20028;-75
2022/10/21 07:40:59;;;;;;;45.40;18.63;;;14.30;99.90;;;;;;5075707;28;20098;-74
2022/10/21 07:43:25;;;;;;;43.85;17.33;;;14.30;99.90;;;;;;5080793;28;20099;-76
2022/10/21 07:45:51;;;;;;;41.75;17.52;;;14.40;99.90;;;;;;5099154;28;20120;-77
2022/10/21 07:48:17;;;;;;;43.00;17.58;;;14.40;99.90;;;;;;5080204;28;20035;-75
2022/10/21 07:50:44;;;;;;;44.88;17.88;;;14.40;99.90;;;;;;5079762;28;20128;-78
2022/10/21 07:53:09;;;;;;;48.50;18.65;;;14.40;99.90;;;;;;5074595;28;20023;-76
2022/10/21 07:55:35;;;;;;;41.10;18.60;;;14.40;99.90;;;;;;5074933;28;20025;-74
2022/10/21 07:58:00;;;;;;;45.08;18.17;;;14.50;99.90;;;;;;5074896;28;20025;-75
2022/10/21 08:00:26;;;;;;;41.65;17.77;;;14.50;99.90;;;;;;5074171;28;20017;-75
2022/10/21 08:02:53;;;;;;;40.63;16.38;;;14.60;99.90;;;;;;5078482;28;20035;-74
2022/10/21 08:05:20;;;;;;;40.03;15.88;;;14.60;99.90;;;;;;5077015;28;20437;-74
2022/10/21 08:07:46;;;;;;;36.63;16.05;;;14.70;99.90;;;;;;5079649;28;20400;-74
2022/10/21 08:10:11;;;;;;;39.47;16.52;;;14.70;99.90;;;;;;5085986;28;20158;-77
2022/10/21 08:12:37;;;;;;;34.00;15.82;;;14.70;99.90;;;;;;5087236;28;20398;-75
2022/10/21 08:15:03;;;;;;;34.58;16.15;;;14.80;99.90;;;;;;5088282;28;20032;-75
2022/10/21 08:17:28;;;;;;;34.70;15.15;;;14.90;99.90;;;;;;5085008;28;20474;-75
2022/10/21 08:19:55;;;;;;;35.65;15.05;;;14.90;99.90;;;;;;5084262;28;20517;-75
2022/10/21 08:22:22;;;;;;;33.05;14.52;;;14.90;99.90;;;;;;5073748;28;20023;-77
2022/10/21 08:24:57;;;;;;;33.15;14.88;;;14.90;99.90;;;;;;5074110;28;20411;-75
2022/10/21 08:27:23;;;;;;;31.63;14.95;;;15.00;99.90;;;;;;5074043;28;20077;-74
2022/10/21 08:29:48;;;;;;;29.15;13.80;;;15.10;99.90;;;;;;5074684;28;20037;-75
2022/10/21 08:32:14;;;;;;;25.73;13.23;;;15.10;99.90;;;;;;5074324;28;20044;-72
2022/10/21 08:34:39;;;;;;;27.77;12.82;;;15.10;99.90;;;;;;5074890;28;20031;-76
2022/10/21 08:37:05;;;;;;;27.10;14.25;;;15.10;99.90;;;;;;5074384;28;20099;-76
2022/10/21 08:39:30;;;;;;;31.48;14.27;;;15.20;99.90;;;;;;5074448;28;20024;-74
2022/10/21 08:42:11;;;;;;;29.48;13.93;;;15.20;99.90;;;;;;5074228;28;20038;-77
2022/10/21 08:44:59;;;;;;;29.38;13.35;;;15.20;99.90;;;;;;5074626;28;20428;-75
2022/10/21 08:47:45;;;;;;;29.45;12.95;;;15.20;99.90;;;;;;5073563;28;20028;-75
2022/10/21 08:50:18;;;;;;;30.05;15.25;;;15.20;99.90;;;;;;5074022;28;20032;-76
2022/10/21 08:53:00;;;;;;;31.45;14.05;;;15.20;99.90;;;;;;5073814;28;20103;-76
2022/10/21 08:55:36;;;;;;;;;;;15.20;99.90;;;;;;5074103;28;20020;-74
2022/10/21 08:58:03;;;;;;;31.13;16.23;;;15.30;99.90;;;;;;5073793;28;20308;-77
2022/10/21 09:00:52;;;;;;;27.00;12.90;;;15.40;99.90;;;;;;5073593;28;20044;-75
2022/10/21 09:03:30;;;;;;;30.10;13.90;;;15.50;99.90;;;;;;5072293;28;20512;-74
2022/10/21 09:05:55;;;;;;;26.33;12.23;;;15.60;99.90;;;;;;5074042;28;20444;-73
2022/10/21 09:08:27;;;;;;;24.08;12.48;;;15.70;99.90;;;;;;5074022;28;20058;-75
2022/10/21 09:11:02;;;;;;;21.70;11.70;;;15.90;99.90;;;;;;5074094;28;20024;-76
2022/10/21 09:13:39;;;;;;;26.30;12.32;;;16.00;99.90;;;;;;5073593;28;20425;-75
2022/10/21 09:16:10;;;;;;;23.75;11.98;;;16.10;99.90;;;;;;5073777;28;20069;-75
2022/10/21 09:18:53;;;;;;;25.10;11.80;;;16.20;99.90;;;;;;5076329;28;20059;-75
2022/10/21 09:21:28;;;;;;;19.33;9.10;;;16.30;99.90;;;;;;5080156;28;20017;-74
2022/10/21 09:24:34;;;;;;;18.58;9.75;;;16.30;99.90;;;;;;5073649;28;20056;-73
2022/10/21 09:27:02;;;;;;;22.55;11.63;;;16.40;99.90;;;;;;5071850;28;20043;-73
2022/10/21 09:29:28;;;;;;;21.00;11.23;;;16.40;99.90;;;;;;5073067;28;20049;-73
2022/10/21 09:32:14;;;;;;;22.98;13.13;;;16.40;99.90;;;;;;5073237;28;20094;-73
2022/10/21 09:34:48;;;;;;;21.48;11.30;;;16.50;99.90;;;;;;5072821;28;20024;-73
2022/10/21 09:37:50;;;;;;;18.77;10.07;;;16.50;99.90;;;;;;5084159;28;20377;-73
2022/10/21 09:40:24;;;;;;;27.13;13.40;;;16.50;99.90;;;;;;5083300;28;20068;-74
2022/10/21 09:42:57;;;;;;;20.02;9.98;;;16.60;99.90;;;;;;5080042;28;20043;-73
2022/10/21 09:45:32;;;;;;;20.40;9.75;;;16.80;99.90;;;;;;5083194;28;20016;-74
2022/10/21 09:48:03;;;;;;;29.05;11.50;;;16.90;99.90;;;;;;5083802;28;20039;-73
2022/10/21 09:50:31;;;;;;;18.53;9.63;;;17.00;99.90;;;;;;5088285;28;20028;-73
2022/10/21 09:53:22;;;;;;;19.15;7.93;;;17.00;99.90;;;;;;5093345;28;20385;-73
2022/10/21 09:55:51;;;;;;;17.75;8.70;;;17.00;99.90;;;;;;5089562;28;20094;-74
2022/10/21 09:58:28;;;;;;;17.38;8.60;;;17.00;99.90;;;;;;5081288;28;20016;-75
2022/10/21 10:00:54;;;;;;;16.67;7.75;;;17.10;99.90;;;;;;5078124;28;20019;-75
2022/10/21 10:03:35;;;;;;;17.90;8.38;;;17.20;99.90;;;;;;5080019;28;20055;-73
2022/10/21 10:06:03;;;;;;;20.35;8.10;;;17.20;99.90;;;;;;5080963;28;20021;-76
2022/10/21 10:08:34;;;;;;;19.00;8.45;;;17.40;99.90;;;;;;5080100;28;20028;-74
2022/10/21 10:11:13;;;;;;;16.20;7.28;;;17.40;99.90;;;;;;5082503;28;20028;-76
2022/10/21 10:13:46;;;;;;;16.83;7.70;;;17.60;99.90;;;;;;5080175;28;20410;-76
2022/10/21 10:16:26;;;;;;;23.33;10.68;;;17.80;99.90;;;;;;5078653;28;20051;-74
2022/10/21 10:19:09;;;;;;;17.42;9.73;;;18.00;99.90;;;;;;5067145;28;20452;-74
2022/10/21 10:21:35;;;;;;;18.70;9.45;;;18.20;99.90;;;;;;5081687;28;20028;-77
2022/10/21 10:24:01;;;;;;;17.70;9.43;;;18.20;99.90;;;;;;5075990;28;21227;-74
2022/10/21 10:26:32;;;;;;;21.17;10.02;;;18.30;99.90;;;;;;5081119;28;20027;-74
2022/10/21 10:29:14;;;;;;;16.15;7.32;;;18.40;99.90;;;;;;5072378;28;20047;-74
2022/10/21 10:31:46;;;;;;;19.73;8.10;;;18.50;99.90;;;;;;5071924;28;20379;-74
2022/10/21 10:34:21;;;;;;;18.05;8.10;;;18.60;99.90;;;;;;5066975;28;20453;-74
2022/10/21 10:36:48;;;;;;;14.70;6.63;;;18.90;99.90;;;;;;5072628;28;20048;-74
2022/10/21 10:39:29;;;;;;;18.02;7.20;;;19.10;99.90;;;;;;5071907;28;20025;-74
2022/10/21 10:41:55;;;;;;;18.10;9.98;;;19.30;99.90;;;;;;5052079;28;20021;-75
2022/10/21 10:44:20;;;;;;;13.23;6.30;;;19.60;99.90;;;;;;5064113;28;20017;-74
2022/10/21 10:46:54;;;;;;;13.68;5.97;;;20.10;99.90;;;;;;5076316;28;20108;-74
2022/10/21 10:49:23;;;;;;;15.18;6.82;;;20.50;99.90;;;;;;5076422;28;20024;-74
2022/10/21 10:52:09;;;;;;;13.82;5.75;;;20.90;99.90;;;;;;5076055;28;20340;-75
2022/10/21 10:54:36;;;;;;;12.00;4.63;;;21.60;99.90;;;;;;5071502;28;20048;-74
2022/10/21 10:57:15;;;;;;;12.52;5.40;;;22.20;99.90;;;;;;5076140;28;20028;-74
2022/10/21 10:59:51;;;;;;;13.57;5.75;;;22.30;99.90;;;;;;5076380;28;20052;-75
2022/10/21 11:02:42;;;;;;;16.25;5.50;;;22.20;99.90;;;;;;5076234;28;20024;-74
2022/10/21 11:05:08;;;;;;;11.02;5.82;;;22.20;99.90;;;;;;5074883;28;20340;-74
2022/10/21 11:07:53;;;;;;;12.50;5.38;;;22.30;99.90;;;;;;5076189;28;20021;-74
2022/10/21 11:10:29;;;;;;;12.50;5.07;;;22.10;99.90;;;;;;5076160;28;20036;-74
2022/10/21 11:12:55;;;;;;;12.35;5.60;;;22.00;99.90;;;;;;5076275;28;20024;-74
2022/10/21 11:15:34;;;;;;;10.85;5.18;;;22.10;99.90;;;;;;5075476;28;20025;-74
2022/10/21 11:18:29;;;;;;;12.90;5.05;;;22.50;99.90;;;;;;5075709;28;20082;-74
2022/10/21 11:21:00;;;;;;;10.77;4.97;;;23.50;99.90;;;;;;5075271;28;20459;-74
2022/10/21 11:23:50;;;;;;;11.80;4.68;;;24.40;99.90;;;;;;5075595;28;20099;-74
2022/10/21 11:26:41;;;;;;;12.45;5.63;;;24.90;99.90;;;;;;5074087;28;20038;-74
2022/10/21 11:29:25;;;;;;;11.80;4.60;;;24.90;99.90;;;;;;5075108;28;20463;-74
2022/10/21 11:32:10;;;;;;;14.02;4.57;;;24.80;99.90;;;;;;5075197;28;20024;-74
2022/10/21 11:34:54;;;;;;;13.60;4.80;;;24.80;99.90;;;;;;5073947;28;20033;-74
2022/10/21 11:37:19;;;;;;;11.82;4.55;;;24.90;99.90;;;;;;5064257;28;20325;-73
2022/10/21 11:40:14;;;;;;;13.85;5.40;;;25.10;99.90;;;;;;5074983;28;20099;-73
2022/10/21 11:42:47;;;;;;;11.02;4.63;;;24.90;99.90;;;;;;5072927;28;20044;-74
2022/10/21 11:45:23;;;;;;;12.38;5.07;;;24.50;99.90;;;;;;5073883;28;20025;-74
2022/10/21 11:48:13;;;;;;;9.30;4.00;;;24.20;99.90;;;;;;5075350;28;20472;-74
2022/10/21 11:51:03;;;;;;;12.38;4.95;;;24.00;99.90;;;;;;5073681;28;20090;-73
2022/10/21 11:53:41;;;;;;;11.07;4.43;;;23.70;99.90;;;;;;5063614;28;20064;-73
2022/10/21 11:56:18;;;;;;;10.48;4.40;;;23.50;99.90;;;;;;5074812;28;20032;-74
2022/10/21 11:59:05;;;;;;;11.43;4.15;;;23.60;99.90;;;;;;5075080;28;20028;-74
2022/10/21 12:01:52;;;;;;;10.00;4.38;;;24.00;99.90;;;;;;5074977;28;20078;-73
2022/10/21 12:04:32;;;;;;;9.07;4.38;;;24.30;99.90;;;;;;5074849;28;20112;-74
2022/10/21 12:07:23;;;;;;;13.07;4.50;;;24.50;99.90;;;;;;5074595;28;20028;-73
2022/10/21 12:09:55;;;;;;;9.73;4.00;;;24.50;99.90;;;;;;5071460;28;20094;-73
2022/10/21 12:12:28;;;;;;;;;;;24.10;99.90;;;;;;5075150;28;20028;-75
2022/10/21 12:15:02;;;;;;;9.80;4.15;;;23.80;99.90;;;;;;5074437;28;19904;-76
2022/10/21 12:17:32;;;;;;;11.35;4.47;;;23.50;99.90;;;;;;5073211;28;20032;-73
2022/10/21 12:20:06;;;;;;;10.80;4.60;;;23.20;99.90;;;;;;5074731;28;20041;-73
2022/10/21 12:22:33;;;;;;;11.43;4.60;;;22.90;99.90;;;;;;5074351;28;20423;-73
2022/10/21 12:25:04;;;;;;;9.75;3.97;;;22.50;99.90;;;;;;5074572;28;20016;-76
2022/10/21 12:27:40;;;;;;;10.07;4.55;;;22.30;99.90;;;;;;5074317;28;20021;-73
2022/10/21 12:30:24;;;;;;;9.98;4.15;;;22.00;99.90;;;;;;5074277;28;20033;-74
2022/10/21 12:33:16;;;;;;;15.35;4.53;;;21.70;99.90;;;;;;5074433;28;20025;-74
2022/10/21 12:35:50;;;;;;;11.68;4.22;;;21.60;99.90;;;;;;5074606;28;20032;-74
2022/10/21 12:38:19;;;;;;;10.07;3.92;;;21.40;99.90;;;;;;5074822;28;20090;-73
2022/10/21 12:40:45;;;;;;;13.43;4.13;;;21.30;99.90;;;;;;5074268;28;20019;-73
2022/10/21 12:43:27;;;;;;;12.35;4.05;;;21.30;99.90;;;;;;5072978;28;20025;-73
2022/10/21 12:46:04;;;;;;;;;;;21.50;99.90;;;;;;5074495;28;20342;-73
2022/10/21 12:48:30;;;;;;;8.50;3.67;;;21.60;99.90;;;;;;5073779;28;19930;-73